sensor_id;sensor_type;location;lat;lon;timestamp;pressure;altitude;pressure_sealevel;temperature;humidity
44103;BME280;29769;42.178;24.742;2023-04-21T00:02:28;99169.25;;;10.39;100.00
44103;BME280;29769;42.178;24.742;2023-04-21T00:05:13;99173.75;;;10.36;100.00
44103;BME280;29769;42.178;24.742;2023-04-21T00:07:57;99166.88;;;10.29;100.00
44103;BME280;29769;42.178;24.742;2023-04-21T00:10:43;99148.75;;;10.15;100.00
44103;BME280;29769;42.178;24.742;2023-04-21T00:13:28;99165.34;;;10.18;100.00
44103;BME280;29769;42.178;24.742;2023-04-21T00:16:12;99169.69;;;10.21;100.00
44103;BME280;29769;42.178;24.742;2023-04-21T00:18:57;99172.34;;;10.18;100.00
44103;BME280;29769;42.178;24.742;2023-04-21T00:21:42;99162.09;;;10.04;100.00
44103;BME280;29769;42.178;24.742;2023-04-21T00:24:27;99168.84;;;10.19;100.00
44103;BME280;29769;42.178;24.742;2023-04-21T00:27:12;99164.53;;;10.16;100.00
44103;BME280;29769;42.178;24.742;2023-04-21T00:29:57;99166.38;;;10.10;100.00
44103;BME280;29769;42.178;24.742;2023-04-21T00:32:41;99162.19;;;10.00;100.00
44103;BME280;29769;42.178;24.742;2023-04-21T00:35:26;99164.94;;;9.95;100.00
44103;BME280;29769;42.178;24.742;2023-04-21T00:38:12;99164.03;;;9.96;100.00
44103;BME280;29769;42.178;24.742;2023-04-21T00:40:57;99162.41;;;9.91;100.00
44103;BME280;29769;42.178;24.742;2023-04-21T00:44:01;99165.09;;;9.89;100.00
44103;BME280;29769;42.178;24.742;2023-04-21T00:46:46;99160.94;;;9.77;100.00
44103;BME280;29769;42.178;24.742;2023-04-21T00:49:32;99143.00;;;9.56;100.00
44103;BME280;29769;42.178;24.742;2023-04-21T00:52:17;99144.50;;;9.68;100.00
44103;BME280;29769;42.178;24.742;2023-04-21T00:55:03;99134.06;;;9.65;100.00
44103;BME280;29769;42.178;24.742;2023-04-21T00:57:50;99156.63;;;9.75;100.00
44103;BME280;29769;42.178;24.742;2023-04-21T01:00:36;99145.44;;;9.65;100.00
44103;BME280;29769;42.178;24.742;2023-04-21T01:03:22;99160.28;;;9.66;100.00
44103;BME280;29769;42.178;24.742;2023-04-21T01:06:07;99153.75;;;9.44;100.00
44103;BME280;29769;42.178;24.742;2023-04-21T01:08:55;99138.28;;;9.27;100.00
44103;BME280;29769;42.178;24.742;2023-04-21T01:11:39;99147.03;;;9.28;100.00
44103;BME280;29769;42.178;24.742;2023-04-21T01:14:25;99134.38;;;9.04;100.00
44103;BME280;29769;42.178;24.742;2023-04-21T01:17:10;99144.81;;;9.05;100.00
44103;BME280;29769;42.178;24.742;2023-04-21T01:19:55;99149.81;;;8.71;100.00
44103;BME280;29769;42.178;24.742;2023-04-21T01:22:41;99139.47;;;8.62;100.00
44103;BME280;29769;42.178;24.742;2023-04-21T01:25:28;99148.34;;;8.54;100.00
44103;BME280;29769;42.178;24.742;2023-04-21T01:28:14;99148.34;;;8.54;100.00
44103;BME280;29769;42.178;24.742;2023-04-21T01:30:59;99144.88;;;8.50;100.00
44103;BME280;29769;42.178;24.742;2023-04-21T01:33:44;99139.03;;;8.34;100.00
44103;BME280;29769;42.178;24.742;2023-04-21T01:36:29;99140.78;;;8.34;100.00
44103;BME280;29769;42.178;24.742;2023-04-21T01:39:15;99135.56;;;8.32;100.00
44103;BME280;29769;42.178;24.742;2023-04-21T01:42:00;99119.19;;;8.14;100.00
44103;BME280;29769;42.178;24.742;2023-04-21T01:44:45;99141.00;;;8.17;100.00
44103;BME280;29769;42.178;24.742;2023-04-21T01:47:30;99136.91;;;7.96;100.00
44103;BME280;29769;42.178;24.742;2023-04-21T01:50:15;99138.78;;;7.87;100.00
44103;BME280;29769;42.178;24.742;2023-04-21T01:53:00;99149.31;;;7.84;100.00
44103;BME280;29769;42.178;24.742;2023-04-21T01:55:45;99155.50;;;7.78;100.00
44103;BME280;29769;42.178;24.742;2023-04-21T01:58:30;99156.53;;;7.65;100.00
44103;BME280;29769;42.178;24.742;2023-04-21T02:01:16;99166.22;;;7.55;100.00
44103;BME280;29769;42.178;24.742;2023-04-21T02:04:04;99169.81;;;7.48;100.00
44103;BME280;29769;42.178;24.742;2023-04-21T02:06:49;99152.63;;;7.26;100.00
44103;BME280;29769;42.178;24.742;2023-04-21T02:09:34;99161.22;;;7.37;100.00
44103;BME280;29769;42.178;24.742;2023-04-21T02:12:19;99167.34;;;7.33;100.00
44103;BME280;29769;42.178;24.742;2023-04-21T02:15:05;99163.81;;;7.37;100.00
44103;BME280;29769;42.178;24.742;2023-04-21T02:17:50;99139.53;;;7.26;100.00
44103;BME280;29769;42.178;24.742;2023-04-21T02:20:36;99158.53;;;7.42;100.00
44103;BME280;29769;42.178;24.742;2023-04-21T02:23:21;99161.09;;;7.48;100.00
44103;BME280;29769;42.178;24.742;2023-04-21T02:26:06;99152.50;;;7.37;100.00
44103;BME280;29769;42.178;24.742;2023-04-21T02:28:51;99156.88;;;7.35;100.00
44103;BME280;29769;42.178;24.742;2023-04-21T02:31:36;99149.97;;;7.31;100.00
44103;BME280;29769;42.178;24.742;2023-04-21T02:34:21;99149.09;;;7.29;100.00
44103;BME280;29769;42.178;24.742;2023-04-21T02:37:06;99148.28;;;7.25;100.00
44103;BME280;29769;42.178;24.742;2023-04-21T02:39:51;99143.97;;;7.21;100.00
44103;BME280;29769;42.178;24.742;2023-04-21T02:42:36;99138.81;;;7.12;100.00
44103;BME280;29769;42.178;24.742;2023-04-21T02:45:21;99144.00;;;7.15;100.00
44103;BME280;29769;42.178;24.742;2023-04-21T02:48:06;99141.44;;;7.10;100.00
44103;BME280;29769;42.178;24.742;2023-04-21T02:50:51;99119.78;;;6.99;100.00
44103;BME280;29769;42.178;24.742;2023-04-21T02:53:37;99137.94;;;7.11;100.00
44103;BME280;29769;42.178;24.742;2023-04-21T02:56:21;99144.94;;;7.11;100.00
44103;BME280;29769;42.178;24.742;2023-04-21T02:59:06;99134.50;;;7.05;100.00
44103;BME280;29769;42.178;24.742;2023-04-21T03:01:51;99143.19;;;7.11;100.00
44103;BME280;29769;42.178;24.742;2023-04-21T03:04:36;99142.31;;;7.11;100.00
44103;BME280;29769;42.178;24.742;2023-04-21T03:07:22;99145.84;;;7.07;100.00
44103;BME280;29769;42.178;24.742;2023-04-21T03:10:07;99146.75;;;7.03;100.00
44103;BME280;29769;42.178;24.742;2023-04-21T03:12:52;99145.97;;;6.93;100.00
44103;BME280;29769;42.178;24.742;2023-04-21T03:15:37;99149.41;;;6.95;100.00
44103;BME280;29769;42.178;24.742;2023-04-21T03:18:22;99161.53;;;7.07;100.00
44103;BME280;29769;42.178;24.742;2023-04-21T03:21:08;99147.69;;;6.97;100.00
44103;BME280;29769;42.178;24.742;2023-04-21T03:23:53;99153.78;;;6.99;100.00
44103;BME280;29769;42.178;24.742;2023-04-21T03:26:38;99155.47;;;7.02;100.00
44103;BME280;29769;42.178;24.742;2023-04-21T03:29:27;99164.16;;;7.08;100.00
44103;BME280;29769;42.178;24.742;2023-04-21T03:32:12;99164.09;;;7.11;100.00
44103;BME280;29769;42.178;24.742;2023-04-21T03:34:57;99164.06;;;7.14;100.00
44103;BME280;29769;42.178;24.742;2023-04-21T03:37:42;99145.81;;;7.10;100.00
44103;BME280;29769;42.178;24.742;2023-04-21T03:40:27;99173.69;;;7.11;100.00
44103;BME280;29769;42.178;24.742;2023-04-21T03:43:12;99171.22;;;6.97;100.00
44103;BME280;29769;42.178;24.742;2023-04-21T03:45:57;99159.16;;;6.80;100.00
44103;BME280;29769;42.178;24.742;2023-04-21T03:48:42;99170.47;;;6.82;100.00
44103;BME280;29769;42.178;24.742;2023-04-21T03:51:27;99167.84;;;6.83;100.00
44103;BME280;29769;42.178;24.742;2023-04-21T03:54:12;99171.34;;;6.85;100.00
44103;BME280;29769;42.178;24.742;2023-04-21T03:56:57;99145.28;;;6.76;100.00
44103;BME280;29769;42.178;24.742;2023-04-21T03:59:42;99170.28;;;7.01;100.00
44103;BME280;29769;42.178;24.742;2023-04-21T04:02:28;99166.81;;;7.02;100.00
44103;BME280;29769;42.178;24.742;2023-04-21T04:05:12;99166.84;;;6.99;100.00
44103;BME280;29769;42.178;24.742;2023-04-21T04:07:57;99152.03;;;6.95;100.00
44103;BME280;29769;42.178;24.742;2023-04-21T04:10:42;99169.25;;;7.22;100.00
44103;BME280;29769;42.178;24.742;2023-04-21T04:13:27;99176.03;;;7.40;100.00
44103;BME280;29769;42.178;24.742;2023-04-21T04:16:12;99176.69;;;7.55;100.00
44103;BME280;29769;42.178;24.742;2023-04-21T04:18:57;99180.91;;;7.69;100.00
44103;BME280;29769;42.178;24.742;2023-04-21T04:21:42;99159.31;;;7.50;100.00
44103;BME280;29769;42.178;24.742;2023-04-21T04:24:27;99169.63;;;7.65;100.00
44103;BME280;29769;42.178;24.742;2023-04-21T04:27:11;99172.13;;;7.73;100.00
44103;BME280;29769;42.178;24.742;2023-04-21T04:29:57;99179.84;;;7.85;100.00
44103;BME280;29769;42.178;24.742;2023-04-21T04:32:42;99181.44;;;7.96;100.00
44103;BME280;29769;42.178;24.742;2023-04-21T04:35:27;99183.94;;;8.05;100.00
44103;BME280;29769;42.178;24.742;2023-04-21T04:38:12;99190.16;;;7.97;100.00
44103;BME280;29769;42.178;24.742;2023-04-21T04:40:58;99177.94;;;7.99;100.00
44103;BME280;29769;42.178;24.742;2023-04-21T04:43:45;99197.72;;;8.18;100.00
44103;BME280;29769;42.178;24.742;2023-04-21T04:46:31;99204.47;;;8.39;100.00
44103;BME280;29769;42.178;24.742;2023-04-21T04:49:16;99198.84;;;8.65;100.00
44103;BME280;29769;42.178;24.742;2023-04-21T04:52:00;99203.66;;;8.90;100.00
44103;BME280;29769;42.178;24.742;2023-04-21T04:54:45;99201.50;;;9.17;100.00
44103;BME280;29769;42.178;24.742;2023-04-21T04:57:30;99199.25;;;9.43;100.00
44103;BME280;29769;42.178;24.742;2023-04-21T05:00:15;99184.03;;;9.62;100.00
44103;BME280;29769;42.178;24.742;2023-04-21T05:03:00;99198.09;;;10.01;100.00
44103;BME280;29769;42.178;24.742;2023-04-21T05:05:45;99201.03;;;10.30;100.00
44103;BME280;29769;42.178;24.742;2023-04-21T05:08:30;99196.25;;;10.47;100.00
44103;BME280;29769;42.178;24.742;2023-04-21T05:11:15;99202.59;;;10.76;100.00
44103;BME280;29769;42.178;24.742;2023-04-21T05:14:00;99204.91;;;10.89;100.00
44103;BME280;29769;42.178;24.742;2023-04-21T05:16:44;99203.72;;;11.01;100.00
44103;BME280;29769;42.178;24.742;2023-04-21T05:19:29;99194.69;;;11.11;100.00
44103;BME280;29769;42.178;24.742;2023-04-21T05:22:14;99192.63;;;11.22;100.00
44103;BME280;29769;42.178;24.742;2023-04-21T05:24:59;99187.19;;;11.30;100.00
44103;BME280;29769;42.178;24.742;2023-04-21T05:27:44;99184.19;;;11.43;100.00
44103;BME280;29769;42.178;24.742;2023-04-21T05:30:29;99182.69;;;11.67;100.00
44103;BME280;29769;42.178;24.742;2023-04-21T05:33:17;99197.81;;;11.91;100.00
44103;BME280;29769;42.178;24.742;2023-04-21T05:36:06;99190.69;;;12.24;100.00
44103;BME280;29769;42.178;24.742;2023-04-21T05:38:51;99183.38;;;12.62;100.00
44103;BME280;29769;42.178;24.742;2023-04-21T05:41:37;99180.63;;;12.92;100.00
44103;BME280;29769;42.178;24.742;2023-04-21T05:44:22;99192.31;;;13.38;100.00
44103;BME280;29769;42.178;24.742;2023-04-21T05:47:08;99174.78;;;13.60;100.00
44103;BME280;29769;42.178;24.742;2023-04-21T05:49:53;99163.72;;;13.74;100.00
44103;BME280;29769;42.178;24.742;2023-04-21T05:52:38;99177.56;;;14.27;100.00
44103;BME280;29769;42.178;24.742;2023-04-21T05:55:23;99179.34;;;14.50;100.00
44103;BME280;29769;42.178;24.742;2023-04-21T05:58:07;99178.69;;;14.88;100.00
44103;BME280;29769;42.178;24.742;2023-04-21T06:00:52;99162.94;;;14.63;100.00
44103;BME280;29769;42.178;24.742;2023-04-21T06:03:37;99178.34;;;15.18;100.00
44103;BME280;29769;42.178;24.742;2023-04-21T06:06:24;99167.44;;;15.25;100.00
44103;BME280;29769;42.178;24.742;2023-04-21T06:09:09;99170.16;;;15.44;100.00
44103;BME280;29769;42.178;24.742;2023-04-21T06:11:54;99177.50;;;15.37;100.00
44103;BME280;29769;42.178;24.742;2023-04-21T06:14:41;99145.91;;;15.73;100.00
44103;BME280;29769;42.178;24.742;2023-04-21T06:17:25;99169.81;;;15.92;100.00
44103;BME280;29769;42.178;24.742;2023-04-21T06:20:11;99161.03;;;15.71;100.00
44103;BME280;29769;42.178;24.742;2023-04-21T06:22:56;99162.56;;;15.95;95.19
44103;BME280;29769;42.178;24.742;2023-04-21T06:25:42;99173.03;;;15.80;91.63
44103;BME280;29769;42.178;24.742;2023-04-21T06:28:26;99140.66;;;16.29;87.26
44103;BME280;29769;42.178;24.742;2023-04-21T06:31:11;99164.66;;;16.45;87.83
44103;BME280;29769;42.178;24.742;2023-04-21T06:33:59;99163.06;;;16.61;86.91
44103;BME280;29769;42.178;24.742;2023-04-21T06:36:43;99142.66;;;16.43;84.29
44103;BME280;29769;42.178;24.742;2023-04-21T06:39:28;99165.31;;;16.50;88.90
44103;BME280;29769;42.178;24.742;2023-04-21T06:42:13;99126.41;;;16.49;86.31
44103;BME280;29769;42.178;24.742;2023-04-21T06:45:00;99154.28;;;16.40;86.07
44103;BME280;29769;42.178;24.742;2023-04-21T06:47:45;99143.59;;;16.61;85.66
44103;BME280;29769;42.178;24.742;2023-04-21T06:50:30;99155.63;;;16.68;84.62
44103;BME280;29769;42.178;24.742;2023-04-21T06:53:14;99118.50;;;16.85;84.68
44103;BME280;29769;42.178;24.742;2023-04-21T06:56:02;99161.94;;;16.84;83.01
44103;BME280;29769;42.178;24.742;2023-04-21T06:58:46;99154.53;;;16.72;84.40
44103;BME280;29769;42.178;24.742;2023-04-21T07:01:31;99139.66;;;16.86;81.96
44103;BME280;29769;42.178;24.742;2023-04-21T07:04:19;99131.69;;;17.04;79.25
44103;BME280;29769;42.178;24.742;2023-04-21T07:07:03;99163.78;;;17.52;79.69
44103;BME280;29769;42.178;24.742;2023-04-21T07:09:48;99155.78;;;17.87;79.66
44103;BME280;29769;42.178;24.742;2023-04-21T07:12:33;99132.34;;;17.43;79.68
44103;BME280;29769;42.178;24.742;2023-04-21T07:15:19;99131.78;;;17.37;77.08
44103;BME280;29769;42.178;24.742;2023-04-21T07:18:04;99122.03;;;17.71;77.28
44103;BME280;29769;42.178;24.742;2023-04-21T07:20:48;99144.72;;;17.61;77.33
44103;BME280;29769;42.178;24.742;2023-04-21T07:23:34;99139.16;;;17.66;76.72
44103;BME280;29769;42.178;24.742;2023-04-21T07:26:18;99143.53;;;18.00;80.27
44103;BME280;29769;42.178;24.742;2023-04-21T07:29:03;99139.00;;;18.49;76.07
44103;BME280;29769;42.178;24.742;2023-04-21T07:31:48;99142.53;;;18.49;75.93
44103;BME280;29769;42.178;24.742;2023-04-21T07:34:33;99127.41;;;18.81;73.45
44103;BME280;29769;42.178;24.742;2023-04-21T07:37:18;99143.97;;;18.56;69.04
44103;BME280;29769;42.178;24.742;2023-04-21T07:40:03;99142.34;;;18.99;69.75
44103;BME280;29769;42.178;24.742;2023-04-21T07:42:48;99145.06;;;18.84;70.25
44103;BME280;29769;42.178;24.742;2023-04-21T07:45:33;99099.53;;;19.02;68.87
44103;BME280;29769;42.178;24.742;2023-04-21T07:48:17;99141.38;;;19.16;62.99
44103;BME280;29769;42.178;24.742;2023-04-21T07:51:03;99149.06;;;18.91;64.42
44103;BME280;29769;42.178;24.742;2023-04-21T07:53:48;99137.13;;;19.28;67.65
44103;BME280;29769;42.178;24.742;2023-04-21T07:56:32;99136.59;;;19.07;64.02
44103;BME280;29769;42.178;24.742;2023-04-21T07:59:17;99132.50;;;19.75;65.31
44103;BME280;29769;42.178;24.742;2023-04-21T08:02:02;99106.19;;;19.83;63.29
44103;BME280;29769;42.178;24.742;2023-04-21T08:04:47;99133.13;;;20.35;63.86
44103;BME280;29769;42.178;24.742;2023-04-21T08:07:32;99128.91;;;20.46;59.35
44103;BME280;29769;42.178;24.742;2023-04-21T08:10:17;99129.63;;;20.07;60.44
44103;BME280;29769;42.178;24.742;2023-04-21T08:13:02;99106.75;;;20.03;57.86
44103;BME280;29769;42.178;24.742;2023-04-21T08:15:53;99130.84;;;20.29;61.02
44103;BME280;29769;42.178;24.742;2023-04-21T08:18:38;99135.09;;;20.60;56.27
44103;BME280;29769;42.178;24.742;2023-04-21T08:21:23;99115.44;;;20.88;57.53
44103;BME280;29769;42.178;24.742;2023-04-21T08:24:08;99120.19;;;20.97;55.63
44103;BME280;29769;42.178;24.742;2023-04-21T08:26:53;99117.03;;;21.17;56.54
44103;BME280;29769;42.178;24.742;2023-04-21T08:29:38;99090.25;;;21.05;56.63
44103;BME280;29769;42.178;24.742;2023-04-21T08:32:22;99120.19;;;21.49;50.86
44103;BME280;29769;42.178;24.742;2023-04-21T08:35:08;99130.00;;;21.23;54.04
44103;BME280;29769;42.178;24.742;2023-04-21T08:37:53;99125.34;;;21.65;50.66
44103;BME280;29769;42.178;24.742;2023-04-21T08:40:38;99118.38;;;22.26;50.43
44103;BME280;29769;42.178;24.742;2023-04-21T08:43:23;99088.63;;;21.67;49.12
44103;BME280;29769;42.178;24.742;2023-04-21T08:46:08;99117.63;;;22.24;47.48
44103;BME280;29769;42.178;24.742;2023-04-21T08:48:53;99117.13;;;22.55;45.55
44103;BME280;29769;42.178;24.742;2023-04-21T08:51:39;99128.25;;;23.33;46.83
44103;BME280;29769;42.178;24.742;2023-04-21T08:54:23;99112.25;;;22.96;46.91
44103;BME280;29769;42.178;24.742;2023-04-21T08:57:08;99102.63;;;23.40;44.88
44103;BME280;29769;42.178;24.742;2023-04-21T08:59:53;99102.28;;;22.98;47.78
44103;BME280;29769;42.178;24.742;2023-04-21T09:02:57;99105.34;;;22.81;45.76
44103;BME280;29769;42.178;24.742;2023-04-21T09:05:42;99109.75;;;23.06;46.40
44103;BME280;29769;42.178;24.742;2023-04-21T09:08:27;99086.09;;;22.63;44.94
44103;BME280;29769;42.178;24.742;2023-04-21T09:11:14;99109.06;;;23.26;42.16
44103;BME280;29769;42.178;24.742;2023-04-21T09:13:59;99099.19;;;23.16;42.48
44103;BME280;29769;42.178;24.742;2023-04-21T09:16:44;99078.69;;;23.94;41.20
44103;BME280;29769;42.178;24.742;2023-04-21T09:19:32;99094.06;;;23.24;44.34
44103;BME280;29769;42.178;24.742;2023-04-21T09:22:18;99083.81;;;23.64;39.40
44103;BME280;29769;42.178;24.742;2023-04-21T09:25:03;99082.63;;;24.01;40.49
44103;BME280;29769;42.178;24.742;2023-04-21T09:27:48;99080.91;;;24.11;40.34
44103;BME280;29769;42.178;24.742;2023-04-21T09:30:37;99067.78;;;25.67;37.52
44103;BME280;29769;42.178;24.742;2023-04-21T09:33:22;99072.50;;;26.36;35.99
44103;BME280;29769;42.178;24.742;2023-04-21T09:36:07;99059.75;;;24.40;38.63
44103;BME280;29769;42.178;24.742;2023-04-21T09:38:59;99073.06;;;24.96;39.10
44103;BME280;29769;42.178;24.742;2023-04-21T09:41:45;99068.78;;;25.97;35.81
44103;BME280;29769;42.178;24.742;2023-04-21T09:44:30;99063.44;;;24.93;37.02
44103;BME280;29769;42.178;24.742;2023-04-21T09:47:15;99057.94;;;25.36;38.50
44103;BME280;29769;42.178;24.742;2023-04-21T09:50:01;99047.50;;;26.24;34.73
44103;BME280;29769;42.178;24.742;2023-04-21T09:52:49;99053.03;;;26.91;33.85
44103;BME280;29769;42.178;24.742;2023-04-21T09:55:35;99045.94;;;26.31;37.12
44103;BME280;29769;42.178;24.742;2023-04-21T09:58:22;99042.06;;;26.74;32.54
44103;BME280;29769;42.178;24.742;2023-04-21T10:01:12;99037.91;;;27.66;32.48
44103;BME280;29769;42.178;24.742;2023-04-21T10:03:57;99042.41;;;26.00;34.35
44103;BME280;29769;42.178;24.742;2023-04-21T10:06:44;99049.09;;;25.66;34.09
44103;BME280;29769;42.178;24.742;2023-04-21T10:09:40;99048.06;;;27.06;31.69
44103;BME280;29769;42.178;24.742;2023-04-21T10:12:26;99034.91;;;27.96;32.62
44103;BME280;29769;42.178;24.742;2023-04-21T10:15:36;99032.41;;;29.38;29.59
44103;BME280;29769;42.178;24.742;2023-04-21T10:18:22;99021.09;;;30.44;27.38
44103;BME280;29769;42.178;24.742;2023-04-21T10:21:09;99025.34;;;31.05;26.28
44103;BME280;29769;42.178;24.742;2023-04-21T10:23:56;99024.09;;;27.96;29.42
44103;BME280;29769;42.178;24.742;2023-04-21T10:26:41;99007.44;;;28.10;30.17
44103;BME280;29769;42.178;24.742;2023-04-21T10:29:30;99005.81;;;27.80;29.02
44103;BME280;29769;42.178;24.742;2023-04-21T10:32:31;98999.56;;;27.33;31.63
44103;BME280;29769;42.178;24.742;2023-04-21T10:35:23;99015.50;;;26.79;32.22
44103;BME280;29769;42.178;24.742;2023-04-21T10:38:08;99012.53;;;27.11;30.98
44103;BME280;29769;42.178;24.742;2023-04-21T10:40:53;99011.22;;;25.98;33.44
44103;BME280;29769;42.178;24.742;2023-04-21T10:43:44;99017.41;;;25.17;33.19
44103;BME280;29769;42.178;24.742;2023-04-21T10:46:34;99018.16;;;24.66;34.88
44103;BME280;29769;42.178;24.742;2023-04-21T10:52:09;99022.28;;;23.94;38.03
44103;BME280;29769;42.178;24.742;2023-04-21T10:57:42;99013.56;;;23.35;38.63
44103;BME280;29769;42.178;24.742;2023-04-21T11:00:27;99022.91;;;23.53;40.02
44103;BME280;29769;42.178;24.742;2023-04-21T11:03:12;99025.13;;;23.48;39.90
44103;BME280;29769;42.178;24.742;2023-04-21T11:05:57;99035.03;;;23.24;40.39
44103;BME280;29769;42.178;24.742;2023-04-21T11:08:56;99030.47;;;23.59;41.15
44103;BME280;29769;42.178;24.742;2023-04-21T11:11:40;99033.66;;;23.64;40.22
44103;BME280;29769;42.178;24.742;2023-04-21T11:14:25;99032.09;;;23.84;41.04
44103;BME280;29769;42.178;24.742;2023-04-21T11:17:12;99012.13;;;24.09;40.52
44103;BME280;29769;42.178;24.742;2023-04-21T11:19:57;99025.09;;;24.69;39.17
44103;BME280;29769;42.178;24.742;2023-04-21T11:22:42;99027.84;;;25.31;37.29
44103;BME280;29769;42.178;24.742;2023-04-21T11:25:26;99018.31;;;26.68;34.86
44103;BME280;29769;42.178;24.742;2023-04-21T11:28:19;99022.03;;;27.24;32.88
44103;BME280;29769;42.178;24.742;2023-04-21T11:31:04;99027.00;;;27.19;31.79
44103;BME280;29769;42.178;24.742;2023-04-21T11:33:49;99002.44;;;27.03;31.75
44103;BME280;29769;42.178;24.742;2023-04-21T11:36:39;99024.31;;;27.19;32.04
44103;BME280;29769;42.178;24.742;2023-04-21T11:39:25;99015.38;;;27.09;31.36
44103;BME280;29769;42.178;24.742;2023-04-21T11:42:09;99030.41;;;26.83;31.59
44103;BME280;29769;42.178;24.742;2023-04-21T11:44:55;99027.28;;;26.68;32.30
44103;BME280;29769;42.178;24.742;2023-04-21T11:47:40;99021.56;;;26.33;32.44
44103;BME280;29769;42.178;24.742;2023-04-21T11:50:30;99020.69;;;25.92;33.68
44103;BME280;29769;42.178;24.742;2023-04-21T11:53:18;99017.03;;;25.21;34.37
44103;BME280;29769;42.178;24.742;2023-04-21T11:56:03;98998.84;;;24.93;34.60
44103;BME280;29769;42.178;24.742;2023-04-21T11:58:49;99018.53;;;25.35;35.85
44103;BME280;29769;42.178;24.742;2023-04-21T12:01:49;99014.38;;;25.31;33.89
44103;BME280;29769;42.178;24.742;2023-04-21T12:04:34;99017.69;;;25.14;35.17
44103;BME280;29769;42.178;24.742;2023-04-21T12:07:21;99015.63;;;26.58;32.90
44103;BME280;29769;42.178;24.742;2023-04-21T12:10:20;99011.91;;;27.92;31.05
44103;BME280;29769;42.178;24.742;2023-04-21T12:13:05;99002.25;;;29.67;28.52
44103;BME280;29769;42.178;24.742;2023-04-21T12:15:50;99008.75;;;29.04;27.90
44103;BME280;29769;42.178;24.742;2023-04-21T12:18:35;99012.00;;;27.63;29.79
44103;BME280;29769;42.178;24.742;2023-04-21T12:21:20;98995.44;;;28.58;28.72
44103;BME280;29769;42.178;24.742;2023-04-21T12:24:05;99002.09;;;28.18;30.21
44103;BME280;29769;42.178;24.742;2023-04-21T12:26:50;99006.28;;;27.10;31.78
44103;BME280;29769;42.178;24.742;2023-04-21T12:29:35;99011.91;;;25.39;34.15
44103;BME280;29769;42.178;24.742;2023-04-21T12:32:21;99011.44;;;24.07;39.36
44103;BME280;29769;42.178;24.742;2023-04-21T12:35:06;99030.63;;;23.23;43.22
44103;BME280;29769;42.178;24.742;2023-04-21T12:37:51;99025.31;;;21.03;45.96
44103;BME280;29769;42.178;24.742;2023-04-21T12:40:35;99088.63;;;19.79;53.79
44103;BME280;29769;42.178;24.742;2023-04-21T12:43:20;99082.53;;;19.77;59.98
44103;BME280;29769;42.178;24.742;2023-04-21T12:46:05;99071.31;;;20.27;64.02
44103;BME280;29769;42.178;24.742;2023-04-21T12:48:50;99056.69;;;19.78;60.06
44103;BME280;29769;42.178;24.742;2023-04-21T12:51:36;99038.22;;;19.46;48.25
44103;BME280;29769;42.178;24.742;2023-04-21T12:54:21;99024.56;;;18.79;53.79
44103;BME280;29769;42.178;24.742;2023-04-21T12:57:05;99032.41;;;18.66;49.64
44103;BME280;29769;42.178;24.742;2023-04-21T12:59:50;99001.97;;;18.70;54.96
44103;BME280;29769;42.178;24.742;2023-04-21T13:02:35;98997.25;;;19.62;52.51
44103;BME280;29769;42.178;24.742;2023-04-21T13:05:21;99001.47;;;21.76;45.50
44103;BME280;29769;42.178;24.742;2023-04-21T13:08:06;98990.56;;;22.15;39.40
44103;BME280;29769;42.178;24.742;2023-04-21T13:10:51;98994.59;;;21.97;44.83
44103;BME280;29769;42.178;24.742;2023-04-21T13:13:36;98991.88;;;22.09;44.78
44103;BME280;29769;42.178;24.742;2023-04-21T13:16:22;98985.44;;;22.12;43.09
44103;BME280;29769;42.178;24.742;2023-04-21T13:19:07;98978.63;;;21.95;41.64
44103;BME280;29769;42.178;24.742;2023-04-21T13:21:52;98985.16;;;21.91;40.97
44103;BME280;29769;42.178;24.742;2023-04-21T13:24:37;98982.19;;;22.20;41.79
44103;BME280;29769;42.178;24.742;2023-04-21T13:27:21;98996.94;;;22.49;43.79
44103;BME280;29769;42.178;24.742;2023-04-21T13:30:10;99002.72;;;22.79;50.15
44103;BME280;29769;42.178;24.742;2023-04-21T13:32:55;98994.19;;;22.74;60.51
44103;BME280;29769;42.178;24.742;2023-04-21T13:35:41;98979.06;;;22.26;47.37
44103;BME280;29769;42.178;24.742;2023-04-21T13:38:26;98975.75;;;22.46;44.33
44103;BME280;29769;42.178;24.742;2023-04-21T13:41:10;98972.00;;;22.48;42.56
44103;BME280;29769;42.178;24.742;2023-04-21T13:43:55;98962.28;;;22.58;49.85
44103;BME280;29769;42.178;24.742;2023-04-21T13:46:40;98947.84;;;23.63;48.43
44103;BME280;29769;42.178;24.742;2023-04-21T13:49:25;98945.94;;;25.24;43.11
44103;BME280;29769;42.178;24.742;2023-04-21T13:52:10;98936.81;;;26.74;39.90
44103;BME280;29769;42.178;24.742;2023-04-21T13:54:56;98940.91;;;28.17;34.80
44103;BME280;29769;42.178;24.742;2023-04-21T13:57:40;98934.97;;;29.28;32.07
44103;BME280;29769;42.178;24.742;2023-04-21T14:00:25;98944.31;;;30.52;30.49
44103;BME280;29769;42.178;24.742;2023-04-21T14:03:10;98943.28;;;31.25;32.17
44103;BME280;29769;42.178;24.742;2023-04-21T14:05:55;98933.44;;;31.57;30.51
44103;BME280;29769;42.178;24.742;2023-04-21T14:08:40;98936.81;;;31.98;27.48
44103;BME280;29769;42.178;24.742;2023-04-21T14:11:25;98943.22;;;32.67;27.15
44103;BME280;29769;42.178;24.742;2023-04-21T14:14:10;98943.16;;;33.20;25.27
44103;BME280;29769;42.178;24.742;2023-04-21T14:16:55;98938.28;;;32.93;26.51
44103;BME280;29769;42.178;24.742;2023-04-21T14:19:40;98899.53;;;32.83;26.29
44103;BME280;29769;42.178;24.742;2023-04-21T14:22:24;98931.59;;;33.18;25.67
44103;BME280;29769;42.178;24.742;2023-04-21T14:25:09;98943.06;;;32.68;25.59
44103;BME280;29769;42.178;24.742;2023-04-21T14:27:54;98936.84;;;32.29;26.95
44103;BME280;29769;42.178;24.742;2023-04-21T14:30:39;98941.75;;;31.55;26.99